Flight Track Log - Related Links

Times and Time Zones

All times are in EDT time to prevent confusion due to time zone crossing. See the EJA829P flight status page for this flight to view local times or setup timezone preferences in your user account.

Time Position Orientation Groundspeed Altitude Reporting Facility
EDT Latitude Longitude Course Direction KTS MPH feet Rate Location/Type
Tue 01:36:48 PM 40.8414 -81.4478 56° Northeast 203 234 5,900  Level Cleveland Center
Tue 01:37:48 PM 40.8503 -81.3572 83° East 197 227 8,300 2,350 Climbing Cleveland Center
Tue 01:38:48 PM 40.8636 -81.2475 81° East 298 343 10,600 1,800 Climbing Cleveland Center
Tue 01:39:48 PM 40.8725 -81.1186 85° East 326 375 11,900 2,350 Climbing Cleveland Center
Tue 01:40:48 PM 40.8919 -80.9978 78° East 341 392 15,300 2,800 Climbing Cleveland Center
Tue 01:41:00 PM 41.2116 -80.8612 59° Northeast  Level FlightAware Approximate
Tue 01:41:48 PM 40.9172 -80.8853 73° East 329 379 17,500  Level Cleveland Center
Tue 01:42:00 PM 41.2718 -80.7564 56° Northeast  Level FlightAware Approximate
Tue 01:42:48 PM 40.9425 -80.7644 74° East 329 379 19,400  Level Cleveland Center
Tue 01:43:48 PM 40.9678 -80.6408 75° East 329 379 20,900 1,500 Climbing Cleveland Center
Tue 01:44:48 PM 40.9969 -80.5172 73° East 340 391 22,400 1,500 Climbing Cleveland Center
Tue 01:45:48 PM 41.0258 -80.3850 74° East 357 411 23,900 1,250 Climbing Cleveland Center
Tue 01:46:48 PM 41.0569 -80.2472 73° East 369 425 24,900 550 Climbing Cleveland Center
Tue 01:47:48 PM 41.0856 -80.1067 75° East 382 440 25,000 50 Climbing Cleveland Center
Tue 01:48:48 PM 41.1181 -79.9547 74° East 399 459 25,000  Level Cleveland Center
Tue 01:49:48 PM 41.1464 -79.8028 76° East 412 474 25,000  Level Cleveland Center
Tue 01:50:48 PM 41.1786 -79.6533 74° East 412 474 25,000  Level Cleveland Center
Tue 01:51:48 PM 41.2086 -79.5122 74° East 420 483 25,000  Level Cleveland Center
Tue 01:52:48 PM 41.2511 -79.3681 69° East 425 489 25,000  Level Cleveland Center
Tue 01:53:48 PM 41.3267 -79.2283 54° Northeast 414 476 25,000 -400 Level Cleveland Center
Tue 01:54:48 PM 41.3747 -79.0833 66° East 414 476 24,200 -900 Descending Cleveland Center
Tue 01:55:48 PM 41.4144 -78.9383 70° East 414 476 23,200 -600 Descending Cleveland Center
Tue 01:56:48 PM 41.4542 -78.7933 70° East 414 476 23,000 -100 Descending Cleveland Center
Tue 01:57:48 PM 41.4933 -78.6481 70° East 414 476 23,000  Level Cleveland Center
Tue 01:58:48 PM 41.5367 -78.4997 69° East 414 476 23,000  Level Cleveland Center
Tue 01:59:48 PM 41.5756 -78.3542 70° East 414 476 23,000  Level Cleveland Center
Tue 02:00:48 PM 41.6144 -78.2083 70° East 414 476 23,000  Level Cleveland Center
Tue 02:01:48 PM 41.6550 -78.0597 70° East 414 476 23,000  Level Cleveland Center
Tue 02:02:48 PM 41.6956 -77.9133 70° East 414 476 23,000 -200 Level Cleveland Center
Tue 02:03:48 PM 41.7339 -77.7700 70° East 414 476 22,600 -788 Descending Cleveland Center
Tue 02:04:27 PM 41.7550 -77.6917 70° East 417 480 21,700 -1,455 Descending New York Center
Tue 02:05:27 PM 41.7947 -77.5483 70° East 417 480 20,200 -1,500 Descending New York Center
Tue 02:06:27 PM 41.8294 -77.4128 71° East 404 465 18,700 -1,438 Descending New York Center
Tue 02:07:28 PM 41.8617 -77.2822 72° East 378 435 17,300 -1,426 Descending New York Center
Tue 02:08:29 PM 41.8981 -77.1464 70° East 373 429 15,800 -1,525 Descending New York Center
Tue 02:09:30 PM 41.9347 -77.0022 71° East 373 429 14,200 -1,412 Descending New York Center
Tue 02:10:28 PM 41.9686 -76.8742 70° East 373 429 13,000 -1,160 Descending New York Center
Tue 02:11:29 PM 41.9997 -76.7514 71° East 362 417 11,900 -1,140 Descending New York Center
Tue 02:12:29 PM 42.0306 -76.6369 70° East 344 396 10,700 -1,119 Descending New York Center
Tue 02:13:27 PM 42.0561 -76.5358 71° East 312 359 9,700 -1,017 Descending New York Center
Tue 02:14:27 PM 42.0819 -76.4319 71° East 289 333 8,700 -1,279 Descending New York Center
Tue 02:15:29 PM 42.1075 -76.3336 71° East 284 327 7,100 -1,500 Descending New York Center
Tue 02:16:27 PM 42.1350 -76.2350 69° East 279 321 5,700 -1,424 Descending New York Center
Tue 02:17:27 PM 42.1539 -76.1389 75° East 273 314 4,300 -1,150 Descending New York Center
Tue 02:18:27 PM 42.1642 -76.0472 81° East 261 300 3,400 -934 Descending New York Center
Tue 02:19:29 PM 42.1675 -75.9750 86° East 228 262 2,400 -787 Descending New York Center
Tue 02:20:29 PM 42.1878 -75.9372 54° Northeast 160 184 1,800 -600 Descending New York Center
Tue 02:27:00 PM 42.2000 -75.9667 259° West  Level FlightAware Approximate
Tue 02:34:00 PM 42.2086 -75.9797 259° West  Level Estimated
Tue 02:35:00 PM 42.2086 -75.9797 259° West  Level Estimated
Tue 02:36:00 PM 42.2086 -75.9797 259° West  Level Estimated
Tue 02:37:00 PM 42.2086 -75.9797 259° West  Level Estimated
Tue 02:38:00 PM 42.2086 -75.9797 259° West  Level Estimated
Tue 02:39:00 PM 42.2086 -75.9797 259° West  Level Estimated
Tue 02:40:00 PM 42.2086 -75.9797 259° West  Level Estimated
Tue 02:41:00 PM 42.2086 -75.9797 259° West  Level Estimated

Login

Don't have an account? Register now (free) for customized features, flight alerts, and more!